sensor_id;sensor_type;location;lat;lon;timestamp;P1;durP1;ratioP1;P2;durP2;ratioP2
17239;SDS011;9943;54.378;18.604;2022-07-12T00:00:58;3.35;;;1.92;;
17239;SDS011;9943;54.378;18.604;2022-07-12T00:03:26;3.13;;;2.08;;
17239;SDS011;9943;54.378;18.604;2022-07-12T00:05:55;3.00;;;1.88;;
17239;SDS011;9943;54.378;18.604;2022-07-12T00:08:24;4.00;;;2.20;;
17239;SDS011;9943;54.378;18.604;2022-07-12T00:10:51;2.20;;;2.00;;
17239;SDS011;9943;54.378;18.604;2022-07-12T00:13:19;4.55;;;1.90;;
17239;SDS011;9943;54.378;18.604;2022-07-12T00:15:46;2.25;;;1.92;;
17239;SDS011;9943;54.378;18.604;2022-07-12T00:18:15;2.50;;;2.03;;
17239;SDS011;9943;54.378;18.604;2022-07-12T00:20:42;3.75;;;2.33;;
17239;SDS011;9943;54.378;18.604;2022-07-12T00:23:11;2.10;;;2.00;;
17239;SDS011;9943;54.378;18.604;2022-07-12T00:25:38;2.20;;;2.00;;
17239;SDS011;9943;54.378;18.604;2022-07-12T00:28:06;4.38;;;1.92;;
17239;SDS011;9943;54.378;18.604;2022-07-12T00:30:34;2.47;;;2.10;;
17239;SDS011;9943;54.378;18.604;2022-07-12T00:33:01;2.10;;;2.00;;
17239;SDS011;9943;54.378;18.604;2022-07-12T00:35:29;3.55;;;2.30;;
17239;SDS011;9943;54.378;18.604;2022-07-12T00:37:56;2.33;;;1.95;;
17239;SDS011;9943;54.378;18.604;2022-07-12T00:40:25;2.47;;;2.25;;
17239;SDS011;9943;54.378;18.604;2022-07-12T00:42:53;3.40;;;2.00;;
17239;SDS011;9943;54.378;18.604;2022-07-12T00:45:20;3.08;;;2.17;;
17239;SDS011;9943;54.378;18.604;2022-07-12T00:47:49;3.60;;;2.08;;
17239;SDS011;9943;54.378;18.604;2022-07-12T00:50:19;2.42;;;2.13;;
17239;SDS011;9943;54.378;18.604;2022-07-12T00:52:48;3.72;;;2.00;;
17239;SDS011;9943;54.378;18.604;2022-07-12T00:55:17;2.40;;;1.90;;
17239;SDS011;9943;54.378;18.604;2022-07-12T00:57:46;3.20;;;2.30;;
17239;SDS011;9943;54.378;18.604;2022-07-12T01:00:15;2.50;;;2.30;;
17239;SDS011;9943;54.378;18.604;2022-07-12T01:02:45;2.85;;;2.40;;
17239;SDS011;9943;54.378;18.604;2022-07-12T01:05:13;3.35;;;2.05;;
17239;SDS011;9943;54.378;18.604;2022-07-12T01:07:41;2.75;;;2.00;;
17239;SDS011;9943;54.378;18.604;2022-07-12T01:10:11;2.53;;;2.00;;
17239;SDS011;9943;54.378;18.604;2022-07-12T01:12:38;2.15;;;1.90;;
17239;SDS011;9943;54.378;18.604;2022-07-12T01:15:08;3.40;;;2.10;;
17239;SDS011;9943;54.378;18.604;2022-07-12T01:17:36;2.65;;;2.20;;
17239;SDS011;9943;54.378;18.604;2022-07-12T01:20:05;3.70;;;2.17;;
17239;SDS011;9943;54.378;18.604;2022-07-12T01:22:34;2.15;;;2.03;;
17239;SDS011;9943;54.378;18.604;2022-07-12T01:25:08;3.90;;;2.10;;
17239;SDS011;9943;54.378;18.604;2022-07-12T01:27:37;3.97;;;2.30;;
17239;SDS011;9943;54.378;18.604;2022-07-12T01:30:05;2.30;;;2.20;;
17239;SDS011;9943;54.378;18.604;2022-07-12T01:32:33;2.30;;;2.10;;
17239;SDS011;9943;54.378;18.604;2022-07-12T01:35:02;2.40;;;2.20;;
17239;SDS011;9943;54.378;18.604;2022-07-12T01:37:33;3.17;;;2.40;;
17239;SDS011;9943;54.378;18.604;2022-07-12T01:40:02;2.40;;;2.20;;
17239;SDS011;9943;54.378;18.604;2022-07-12T01:42:33;2.88;;;2.20;;
17239;SDS011;9943;54.378;18.604;2022-07-12T01:45:02;4.72;;;2.22;;
17239;SDS011;9943;54.378;18.604;2022-07-12T01:51:19;2.50;;;2.30;;
17239;SDS011;9943;54.378;18.604;2022-07-12T01:57:28;2.47;;;2.28;;
17239;SDS011;9943;54.378;18.604;2022-07-12T01:59:59;3.13;;;2.53;;
17239;SDS011;9943;54.378;18.604;2022-07-12T02:02:28;2.55;;;2.35;;
17239;SDS011;9943;54.378;18.604;2022-07-12T02:04:57;3.08;;;2.70;;
17239;SDS011;9943;54.378;18.604;2022-07-12T02:07:26;2.88;;;2.42;;
17239;SDS011;9943;54.378;18.604;2022-07-12T02:09:54;4.35;;;3.40;;
17239;SDS011;9943;54.378;18.604;2022-07-12T02:12:21;2.58;;;2.38;;
17239;SDS011;9943;54.378;18.604;2022-07-12T02:14:49;2.55;;;2.35;;
17239;SDS011;9943;54.378;18.604;2022-07-12T02:17:18;2.38;;;2.22;;
17239;SDS011;9943;54.378;18.604;2022-07-12T02:19:46;2.80;;;2.60;;
17239;SDS011;9943;54.378;18.604;2022-07-12T02:22:14;2.88;;;2.35;;
17239;SDS011;9943;54.378;18.604;2022-07-12T02:24:41;3.17;;;2.55;;
17239;SDS011;9943;54.378;18.604;2022-07-12T02:27:09;2.90;;;2.70;;
17239;SDS011;9943;54.378;18.604;2022-07-12T02:29:36;3.58;;;2.65;;
17239;SDS011;9943;54.378;18.604;2022-07-12T02:32:04;3.08;;;2.78;;
17239;SDS011;9943;54.378;18.604;2022-07-12T02:34:33;3.28;;;2.80;;
17239;SDS011;9943;54.378;18.604;2022-07-12T02:37:00;5.25;;;3.10;;
17239;SDS011;9943;54.378;18.604;2022-07-12T02:39:29;2.80;;;2.50;;
17239;SDS011;9943;54.378;18.604;2022-07-12T02:41:56;2.50;;;2.30;;
17239;SDS011;9943;54.378;18.604;2022-07-12T02:44:23;2.88;;;2.58;;
17239;SDS011;9943;54.378;18.604;2022-07-12T02:46:51;2.45;;;2.25;;
17239;SDS011;9943;54.378;18.604;2022-07-12T02:49:18;5.78;;;2.20;;
17239;SDS011;9943;54.378;18.604;2022-07-12T02:51:47;2.55;;;2.35;;
17239;SDS011;9943;54.378;18.604;2022-07-12T02:54:14;4.90;;;2.47;;
17239;SDS011;9943;54.378;18.604;2022-07-12T02:56:42;3.33;;;2.50;;
17239;SDS011;9943;54.378;18.604;2022-07-12T02:59:09;7.20;;;2.53;;
17239;SDS011;9943;54.378;18.604;2022-07-12T03:01:36;2.47;;;2.38;;
17239;SDS011;9943;54.378;18.604;2022-07-12T03:04:04;2.70;;;2.50;;
17239;SDS011;9943;54.378;18.604;2022-07-12T03:06:31;4.28;;;2.85;;
17239;SDS011;9943;54.378;18.604;2022-07-12T03:09:00;4.22;;;2.63;;
17239;SDS011;9943;54.378;18.604;2022-07-12T03:11:27;5.45;;;2.55;;
17239;SDS011;9943;54.378;18.604;2022-07-12T03:13:55;2.83;;;2.42;;
17239;SDS011;9943;54.378;18.604;2022-07-12T03:16:22;2.50;;;2.30;;
17239;SDS011;9943;54.378;18.604;2022-07-12T03:18:49;5.63;;;3.30;;
17239;SDS011;9943;54.378;18.604;2022-07-12T03:21:17;2.38;;;2.17;;
17239;SDS011;9943;54.378;18.604;2022-07-12T03:23:44;2.80;;;2.20;;
17239;SDS011;9943;54.378;18.604;2022-07-12T03:26:13;2.63;;;2.20;;
17239;SDS011;9943;54.378;18.604;2022-07-12T03:28:40;3.50;;;2.05;;
17239;SDS011;9943;54.378;18.604;2022-07-12T03:31:08;2.78;;;2.08;;
17239;SDS011;9943;54.378;18.604;2022-07-12T03:33:35;5.38;;;2.30;;
17239;SDS011;9943;54.378;18.604;2022-07-12T03:36:02;2.25;;;1.85;;
17239;SDS011;9943;54.378;18.604;2022-07-12T03:38:32;3.40;;;1.85;;
17239;SDS011;9943;54.378;18.604;2022-07-12T03:40:59;1.75;;;1.65;;
17239;SDS011;9943;54.378;18.604;2022-07-12T03:43:29;1.90;;;1.80;;
17239;SDS011;9943;54.378;18.604;2022-07-12T03:45:56;2.10;;;1.70;;
17239;SDS011;9943;54.378;18.604;2022-07-12T03:48:23;2.17;;;1.98;;
17239;SDS011;9943;54.378;18.604;2022-07-12T03:50:51;2.45;;;1.80;;
17239;SDS011;9943;54.378;18.604;2022-07-12T03:53:18;4.50;;;1.80;;
17239;SDS011;9943;54.378;18.604;2022-07-12T03:55:46;5.15;;;2.20;;
17239;SDS011;9943;54.378;18.604;2022-07-12T03:58:13;2.08;;;1.50;;
17239;SDS011;9943;54.378;18.604;2022-07-12T04:00:42;3.03;;;1.27;;
17239;SDS011;9943;54.378;18.604;2022-07-12T04:03:09;3.08;;;1.60;;
17239;SDS011;9943;54.378;18.604;2022-07-12T04:05:37;1.77;;;1.35;;
17239;SDS011;9943;54.378;18.604;2022-07-12T04:08:05;1.40;;;1.30;;
17239;SDS011;9943;54.378;18.604;2022-07-12T04:10:32;1.88;;;1.40;;
17239;SDS011;9943;54.378;18.604;2022-07-12T04:13:00;2.58;;;1.38;;
17239;SDS011;9943;54.378;18.604;2022-07-12T04:15:27;1.60;;;1.50;;
17239;SDS011;9943;54.378;18.604;2022-07-12T04:17:56;1.42;;;1.33;;
17239;SDS011;9943;54.378;18.604;2022-07-12T04:20:23;1.25;;;1.13;;
17239;SDS011;9943;54.378;18.604;2022-07-12T04:22:51;2.17;;;1.23;;
17239;SDS011;9943;54.378;18.604;2022-07-12T04:25:18;1.50;;;1.40;;
17239;SDS011;9943;54.378;18.604;2022-07-12T04:27:46;1.58;;;1.48;;
17239;SDS011;9943;54.378;18.604;2022-07-12T04:30:14;1.77;;;1.42;;
17239;SDS011;9943;54.378;18.604;2022-07-12T04:32:42;3.20;;;1.20;;
17239;SDS011;9943;54.378;18.604;2022-07-12T04:35:10;1.40;;;1.30;;
17239;SDS011;9943;54.378;18.604;2022-07-12T04:37:38;1.65;;;1.30;;
17239;SDS011;9943;54.378;18.604;2022-07-12T04:40:06;1.50;;;1.10;;
17239;SDS011;9943;54.378;18.604;2022-07-12T04:42:34;2.55;;;1.10;;
17239;SDS011;9943;54.378;18.604;2022-07-12T04:45:01;1.83;;;1.40;;
17239;SDS011;9943;54.378;18.604;2022-07-12T04:47:29;2.20;;;1.58;;
17239;SDS011;9943;54.378;18.604;2022-07-12T04:49:56;1.83;;;1.15;;
17239;SDS011;9943;54.378;18.604;2022-07-12T04:52:25;1.25;;;1.02;;
17239;SDS011;9943;54.378;18.604;2022-07-12T04:54:52;4.32;;;1.33;;
17239;SDS011;9943;54.378;18.604;2022-07-12T04:57:19;1.90;;;1.75;;
17239;SDS011;9943;54.378;18.604;2022-07-12T04:59:47;1.33;;;1.00;;
17239;SDS011;9943;54.378;18.604;2022-07-12T05:02:15;1.58;;;1.05;;
17239;SDS011;9943;54.378;18.604;2022-07-12T05:04:42;1.20;;;1.10;;
17239;SDS011;9943;54.378;18.604;2022-07-12T05:07:10;1.35;;;1.25;;
17239;SDS011;9943;54.378;18.604;2022-07-12T05:09:38;2.13;;;1.40;;
17239;SDS011;9943;54.378;18.604;2022-07-12T05:12:06;2.17;;;1.20;;
17239;SDS011;9943;54.378;18.604;2022-07-12T05:14:34;1.48;;;1.15;;
17239;SDS011;9943;54.378;18.604;2022-07-12T05:17:01;2.08;;;1.25;;
17239;SDS011;9943;54.378;18.604;2022-07-12T05:19:29;0.93;;;0.90;;
17239;SDS011;9943;54.378;18.604;2022-07-12T05:21:56;1.55;;;1.00;;
17239;SDS011;9943;54.378;18.604;2022-07-12T05:24:24;1.95;;;1.38;;
17239;SDS011;9943;54.378;18.604;2022-07-12T05:26:53;1.30;;;1.20;;
17239;SDS011;9943;54.378;18.604;2022-07-12T05:29:20;1.42;;;1.20;;
17239;SDS011;9943;54.378;18.604;2022-07-12T05:31:48;1.17;;;1.10;;
17239;SDS011;9943;54.378;18.604;2022-07-12T05:34:15;1.40;;;1.30;;
17239;SDS011;9943;54.378;18.604;2022-07-12T05:36:43;1.42;;;1.33;;
17239;SDS011;9943;54.378;18.604;2022-07-12T05:39:11;1.50;;;1.08;;
17239;SDS011;9943;54.378;18.604;2022-07-12T05:41:39;1.70;;;1.30;;
17239;SDS011;9943;54.378;18.604;2022-07-12T05:44:08;1.45;;;1.13;;
17239;SDS011;9943;54.378;18.604;2022-07-12T05:46:36;1.35;;;1.00;;
17239;SDS011;9943;54.378;18.604;2022-07-12T05:49:05;3.03;;;1.10;;
17239;SDS011;9943;54.378;18.604;2022-07-12T05:51:32;1.20;;;1.10;;
17239;SDS011;9943;54.378;18.604;2022-07-12T05:54:17;2.47;;;1.05;;
17239;SDS011;9943;54.378;18.604;2022-07-12T05:56:44;1.55;;;1.00;;
17239;SDS011;9943;54.378;18.604;2022-07-12T05:59:13;2.05;;;0.88;;
17239;SDS011;9943;54.378;18.604;2022-07-12T06:01:41;1.63;;;0.82;;
17239;SDS011;9943;54.378;18.604;2022-07-12T06:04:08;1.23;;;1.00;;
17239;SDS011;9943;54.378;18.604;2022-07-12T06:06:36;1.63;;;0.98;;
17239;SDS011;9943;54.378;18.604;2022-07-12T06:09:03;1.35;;;1.00;;
17239;SDS011;9943;54.378;18.604;2022-07-12T06:11:31;1.10;;;0.93;;
17239;SDS011;9943;54.378;18.604;2022-07-12T06:13:59;9.23;;;4.80;;
17239;SDS011;9943;54.378;18.604;2022-07-12T06:16:28;6.13;;;3.78;;
17239;SDS011;9943;54.378;18.604;2022-07-12T06:18:56;2.00;;;1.80;;
17239;SDS011;9943;54.378;18.604;2022-07-12T06:21:27;2.28;;;0.90;;
17239;SDS011;9943;54.378;18.604;2022-07-12T06:23:54;2.35;;;1.50;;
17239;SDS011;9943;54.378;18.604;2022-07-12T06:26:22;1.42;;;0.82;;
17239;SDS011;9943;54.378;18.604;2022-07-12T06:28:49;2.00;;;0.90;;
17239;SDS011;9943;54.378;18.604;2022-07-12T06:31:17;0.70;;;0.70;;
17239;SDS011;9943;54.378;18.604;2022-07-12T06:33:46;1.63;;;0.80;;
17239;SDS011;9943;54.378;18.604;2022-07-12T06:36:13;3.47;;;0.93;;
17239;SDS011;9943;54.378;18.604;2022-07-12T06:38:42;1.95;;;1.00;;
17239;SDS011;9943;54.378;18.604;2022-07-12T06:41:10;1.30;;;0.85;;
17239;SDS011;9943;54.378;18.604;2022-07-12T06:43:38;1.05;;;0.90;;
17239;SDS011;9943;54.378;18.604;2022-07-12T06:46:07;3.03;;;0.98;;
17239;SDS011;9943;54.378;18.604;2022-07-12T06:48:34;1.13;;;0.80;;
17239;SDS011;9943;54.378;18.604;2022-07-12T06:51:03;1.30;;;0.82;;
17239;SDS011;9943;54.378;18.604;2022-07-12T06:53:32;0.85;;;0.70;;
17239;SDS011;9943;54.378;18.604;2022-07-12T06:55:59;0.65;;;0.60;;
17239;SDS011;9943;54.378;18.604;2022-07-12T06:58:33;3.45;;;0.85;;
17239;SDS011;9943;54.378;18.604;2022-07-12T07:01:00;0.70;;;0.70;;
17239;SDS011;9943;54.378;18.604;2022-07-12T07:03:28;1.08;;;0.88;;
17239;SDS011;9943;54.378;18.604;2022-07-12T07:05:59;0.80;;;0.70;;
17239;SDS011;9943;54.378;18.604;2022-07-12T07:08:28;5.93;;;0.90;;
17239;SDS011;9943;54.378;18.604;2022-07-12T07:10:56;0.75;;;0.70;;
17239;SDS011;9943;54.378;18.604;2022-07-12T07:13:24;1.23;;;0.88;;
17239;SDS011;9943;54.378;18.604;2022-07-12T07:15:51;4.68;;;1.08;;
17239;SDS011;9943;54.378;18.604;2022-07-12T07:18:19;2.22;;;0.80;;
17239;SDS011;9943;54.378;18.604;2022-07-12T07:20:46;2.03;;;0.80;;
17239;SDS011;9943;54.378;18.604;2022-07-12T07:23:14;0.95;;;0.60;;
17239;SDS011;9943;54.378;18.604;2022-07-12T07:25:43;2.28;;;0.70;;
17239;SDS011;9943;54.378;18.604;2022-07-12T07:28:11;1.77;;;0.70;;
17239;SDS011;9943;54.378;18.604;2022-07-12T07:30:40;1.08;;;0.57;;
17239;SDS011;9943;54.378;18.604;2022-07-12T07:33:19;1.67;;;0.70;;
17239;SDS011;9943;54.378;18.604;2022-07-12T07:35:47;2.88;;;1.17;;
17239;SDS011;9943;54.378;18.604;2022-07-12T07:38:14;0.93;;;0.70;;
17239;SDS011;9943;54.378;18.604;2022-07-12T07:40:43;2.88;;;1.08;;
17239;SDS011;9943;54.378;18.604;2022-07-12T07:43:11;3.35;;;0.80;;
17239;SDS011;9943;54.378;18.604;2022-07-12T07:45:38;1.05;;;0.60;;
17239;SDS011;9943;54.378;18.604;2022-07-12T07:48:06;0.75;;;0.60;;
17239;SDS011;9943;54.378;18.604;2022-07-12T07:50:33;1.35;;;0.60;;
17239;SDS011;9943;54.378;18.604;2022-07-12T07:53:01;2.38;;;0.70;;
17239;SDS011;9943;54.378;18.604;2022-07-12T07:55:30;0.82;;;0.60;;
17239;SDS011;9943;54.378;18.604;2022-07-12T07:57:59;0.98;;;0.82;;
17239;SDS011;9943;54.378;18.604;2022-07-12T08:00:27;1.20;;;1.08;;
17239;SDS011;9943;54.378;18.604;2022-07-12T08:02:55;1.55;;;1.13;;
17239;SDS011;9943;54.378;18.604;2022-07-12T08:05:22;0.50;;;0.50;;
17239;SDS011;9943;54.378;18.604;2022-07-12T08:07:50;1.40;;;0.80;;
17239;SDS011;9943;54.378;18.604;2022-07-12T08:10:19;2.92;;;0.80;;
17239;SDS011;9943;54.378;18.604;2022-07-12T08:12:46;0.75;;;0.70;;
17239;SDS011;9943;54.378;18.604;2022-07-12T08:15:16;1.30;;;1.00;;
17239;SDS011;9943;54.378;18.604;2022-07-12T08:17:45;1.45;;;0.50;;
17239;SDS011;9943;54.378;18.604;2022-07-12T08:20:12;1.60;;;1.20;;
17239;SDS011;9943;54.378;18.604;2022-07-12T08:22:42;1.50;;;0.82;;
17239;SDS011;9943;54.378;18.604;2022-07-12T08:25:12;1.92;;;1.23;;
17239;SDS011;9943;54.378;18.604;2022-07-12T08:27:41;0.98;;;0.93;;
17239;SDS011;9943;54.378;18.604;2022-07-12T08:30:10;1.95;;;1.55;;
17239;SDS011;9943;54.378;18.604;2022-07-12T08:32:43;4.25;;;3.40;;
17239;SDS011;9943;54.378;18.604;2022-07-12T08:35:11;1.13;;;0.88;;
17239;SDS011;9943;54.378;18.604;2022-07-12T08:37:39;2.47;;;1.92;;
17239;SDS011;9943;54.378;18.604;2022-07-12T08:40:07;1.60;;;1.50;;
17239;SDS011;9943;54.378;18.604;2022-07-12T08:42:35;6.60;;;0.85;;
17239;SDS011;9943;54.378;18.604;2022-07-12T08:45:07;2.15;;;0.75;;
17239;SDS011;9943;54.378;18.604;2022-07-12T08:47:35;0.73;;;0.73;;
17239;SDS011;9943;54.378;18.604;2022-07-12T08:50:11;1.35;;;1.02;;
17239;SDS011;9943;54.378;18.604;2022-07-12T08:52:43;0.63;;;0.60;;
17239;SDS011;9943;54.378;18.604;2022-07-12T08:55:18;0.55;;;0.50;;
17239;SDS011;9943;54.378;18.604;2022-07-12T08:57:47;4.85;;;3.47;;
17239;SDS011;9943;54.378;18.604;2022-07-12T09:00:15;1.95;;;0.95;;
17239;SDS011;9943;54.378;18.604;2022-07-12T09:02:43;5.13;;;0.82;;
17239;SDS011;9943;54.378;18.604;2022-07-12T09:05:14;1.23;;;0.73;;
17239;SDS011;9943;54.378;18.604;2022-07-12T09:07:42;1.50;;;0.60;;
17239;SDS011;9943;54.378;18.604;2022-07-12T09:10:10;1.75;;;1.00;;
17239;SDS011;9943;54.378;18.604;2022-07-12T09:12:39;2.78;;;1.80;;
17239;SDS011;9943;54.378;18.604;2022-07-12T09:15:10;2.03;;;0.80;;
17239;SDS011;9943;54.378;18.604;2022-07-12T09:17:39;0.68;;;0.68;;
17239;SDS011;9943;54.378;18.604;2022-07-12T09:20:10;1.77;;;0.80;;
17239;SDS011;9943;54.378;18.604;2022-07-12T09:22:44;0.70;;;0.70;;
17239;SDS011;9943;54.378;18.604;2022-07-12T09:25:18;1.92;;;0.80;;
17239;SDS011;9943;54.378;18.604;2022-07-12T09:27:52;0.65;;;0.65;;
17239;SDS011;9943;54.378;18.604;2022-07-12T09:30:21;1.50;;;1.10;;
17239;SDS011;9943;54.378;18.604;2022-07-12T09:32:53;0.98;;;0.90;;
17239;SDS011;9943;54.378;18.604;2022-07-12T09:35:41;0.95;;;0.80;;
17239;SDS011;9943;54.378;18.604;2022-07-12T09:38:28;2.60;;;0.60;;
17239;SDS011;9943;54.378;18.604;2022-07-12T09:40:56;1.33;;;0.63;;
17239;SDS011;9943;54.378;18.604;2022-07-12T09:43:26;0.93;;;0.68;;
17239;SDS011;9943;54.378;18.604;2022-07-12T09:45:54;1.00;;;0.80;;
17239;SDS011;9943;54.378;18.604;2022-07-12T09:48:21;0.95;;;0.90;;
17239;SDS011;9943;54.378;18.604;2022-07-12T09:50:50;0.98;;;0.73;;
17239;SDS011;9943;54.378;18.604;2022-07-12T09:53:21;1.50;;;0.90;;
17239;SDS011;9943;54.378;18.604;2022-07-12T09:56:00;3.28;;;0.73;;
17239;SDS011;9943;54.378;18.604;2022-07-12T09:58:32;0.63;;;0.63;;
17239;SDS011;9943;54.378;18.604;2022-07-12T10:01:05;0.80;;;0.80;;
17239;SDS011;9943;54.378;18.604;2022-07-12T10:03:34;1.10;;;0.98;;
17239;SDS011;9943;54.378;18.604;2022-07-12T10:06:03;1.50;;;0.70;;
17239;SDS011;9943;54.378;18.604;2022-07-12T10:08:32;2.40;;;0.82;;
17239;SDS011;9943;54.378;18.604;2022-07-12T10:11:00;4.53;;;0.90;;
17239;SDS011;9943;54.378;18.604;2022-07-12T10:13:29;1.45;;;0.90;;
17239;SDS011;9943;54.378;18.604;2022-07-12T10:15:57;0.88;;;0.73;;
17239;SDS011;9943;54.378;18.604;2022-07-12T10:18:27;2.15;;;0.82;;
17239;SDS011;9943;54.378;18.604;2022-07-12T10:20:56;6.00;;;0.90;;
17239;SDS011;9943;54.378;18.604;2022-07-12T10:23:27;1.95;;;0.90;;
17239;SDS011;9943;54.378;18.604;2022-07-12T10:29:04;2.80;;;1.00;;
17239;SDS011;9943;54.378;18.604;2022-07-12T10:31:34;2.08;;;1.60;;
17239;SDS011;9943;54.378;18.604;2022-07-12T10:34:09;1.95;;;1.17;;
17239;SDS011;9943;54.378;18.604;2022-07-12T10:39:36;1.55;;;0.70;;
17239;SDS011;9943;54.378;18.604;2022-07-12T10:42:13;1.20;;;0.88;;
17239;SDS011;9943;54.378;18.604;2022-07-12T10:44:43;1.20;;;1.05;;
17239;SDS011;9943;54.378;18.604;2022-07-12T10:47:15;1.17;;;1.00;;
17239;SDS011;9943;54.378;18.604;2022-07-12T10:49:47;2.63;;;0.70;;
17239;SDS011;9943;54.378;18.604;2022-07-12T10:52:17;3.50;;;0.75;;
17239;SDS011;9943;54.378;18.604;2022-07-12T10:57:48;0.73;;;0.73;;
17239;SDS011;9943;54.378;18.604;2022-07-12T11:00:17;1.13;;;1.00;;
17239;SDS011;9943;54.378;18.604;2022-07-12T11:02:45;0.70;;;0.70;;
17239;SDS011;9943;54.378;18.604;2022-07-12T11:05:13;1.10;;;0.80;;
17239;SDS011;9943;54.378;18.604;2022-07-12T11:07:41;2.10;;;0.80;;
17239;SDS011;9943;54.378;18.604;2022-07-12T11:10:11;1.42;;;1.00;;
17239;SDS011;9943;54.378;18.604;2022-07-12T11:12:40;2.05;;;0.93;;
17239;SDS011;9943;54.378;18.604;2022-07-12T11:15:09;2.67;;;0.80;;
17239;SDS011;9943;54.378;18.604;2022-07-12T11:17:38;2.67;;;0.70;;
17239;SDS011;9943;54.378;18.604;2022-07-12T11:20:07;1.73;;;1.00;;
17239;SDS011;9943;54.378;18.604;2022-07-12T11:22:36;1.27;;;1.00;;
17239;SDS011;9943;54.378;18.604;2022-07-12T11:25:06;2.58;;;0.73;;
17239;SDS011;9943;54.378;18.604;2022-07-12T11:27:35;0.85;;;0.80;;
17239;SDS011;9943;54.378;18.604;2022-07-12T11:30:03;1.45;;;0.80;;
17239;SDS011;9943;54.378;18.604;2022-07-12T11:32:39;1.50;;;1.05;;
17239;SDS011;9943;54.378;18.604;2022-07-12T11:35:18;0.80;;;0.80;;
17239;SDS011;9943;54.378;18.604;2022-07-12T11:37:50;3.22;;;1.00;;
17239;SDS011;9943;54.378;18.604;2022-07-12T11:40:27;1.75;;;0.80;;
17239;SDS011;9943;54.378;18.604;2022-07-12T11:42:56;2.13;;;0.77;;
17239;SDS011;9943;54.378;18.604;2022-07-12T11:45:25;0.90;;;0.90;;
17239;SDS011;9943;54.378;18.604;2022-07-12T11:47:57;1.10;;;1.00;;
17239;SDS011;9943;54.378;18.604;2022-07-12T11:50:26;5.28;;;1.08;;
17239;SDS011;9943;54.378;18.604;2022-07-12T11:52:55;1.83;;;0.82;;
17239;SDS011;9943;54.378;18.604;2022-07-12T11:55:23;1.25;;;0.63;;
17239;SDS011;9943;54.378;18.604;2022-07-12T11:57:51;1.35;;;0.60;;
17239;SDS011;9943;54.378;18.604;2022-07-12T12:00:29;0.70;;;0.70;;
17239;SDS011;9943;54.378;18.604;2022-07-12T12:02:58;2.70;;;0.80;;
17239;SDS011;9943;54.378;18.604;2022-07-12T12:05:30;1.10;;;1.10;;
17239;SDS011;9943;54.378;18.604;2022-07-12T12:07:58;1.02;;;0.90;;
17239;SDS011;9943;54.378;18.604;2022-07-12T12:10:27;3.70;;;1.08;;
17239;SDS011;9943;54.378;18.604;2022-07-12T12:12:55;0.55;;;0.55;;
17239;SDS011;9943;54.378;18.604;2022-07-12T12:15:23;1.00;;;0.85;;
17239;SDS011;9943;54.378;18.604;2022-07-12T12:17:52;3.70;;;1.20;;
17239;SDS011;9943;54.378;18.604;2022-07-12T12:20:23;0.70;;;0.70;;
17239;SDS011;9943;54.378;18.604;2022-07-12T12:22:52;1.77;;;0.80;;
17239;SDS011;9943;54.378;18.604;2022-07-12T12:25:21;0.88;;;0.80;;
17239;SDS011;9943;54.378;18.604;2022-07-12T12:27:53;1.05;;;0.90;;
17239;SDS011;9943;54.378;18.604;2022-07-12T12:30:22;2.10;;;0.80;;
17239;SDS011;9943;54.378;18.604;2022-07-12T12:32:58;1.33;;;0.95;;
17239;SDS011;9943;54.378;18.604;2022-07-12T12:35:31;0.88;;;0.88;;
17239;SDS011;9943;54.378;18.604;2022-07-12T12:38:00;1.02;;;0.95;;
17239;SDS011;9943;54.378;18.604;2022-07-12T12:40:29;1.50;;;1.17;;
17239;SDS011;9943;54.378;18.604;2022-07-12T12:43:06;0.60;;;0.60;;
17239;SDS011;9943;54.378;18.604;2022-07-12T12:45:34;1.65;;;0.82;;
17239;SDS011;9943;54.378;18.604;2022-07-12T12:48:05;1.63;;;0.90;;
17239;SDS011;9943;54.378;18.604;2022-07-12T12:50:37;1.05;;;0.90;;
17239;SDS011;9943;54.378;18.604;2022-07-12T12:53:13;3.90;;;0.80;;
17239;SDS011;9943;54.378;18.604;2022-07-12T12:55:42;1.05;;;0.75;;
17239;SDS011;9943;54.378;18.604;2022-07-12T12:58:11;2.63;;;0.93;;
17239;SDS011;9943;54.378;18.604;2022-07-12T13:00:40;0.88;;;0.65;;
17239;SDS011;9943;54.378;18.604;2022-07-12T13:03:10;1.05;;;0.90;;
17239;SDS011;9943;54.378;18.604;2022-07-12T13:05:41;1.35;;;1.20;;
17239;SDS011;9943;54.378;18.604;2022-07-12T13:08:09;1.58;;;0.80;;
17239;SDS011;9943;54.378;18.604;2022-07-12T13:10:37;0.80;;;0.80;;
17239;SDS011;9943;54.378;18.604;2022-07-12T13:13:06;0.80;;;0.80;;
17239;SDS011;9943;54.378;18.604;2022-07-12T13:15:35;0.77;;;0.77;;
17239;SDS011;9943;54.378;18.604;2022-07-12T13:18:03;1.10;;;0.70;;
17239;SDS011;9943;54.378;18.604;2022-07-12T13:20:32;0.73;;;0.70;;
17239;SDS011;9943;54.378;18.604;2022-07-12T13:23:02;0.90;;;0.70;;
17239;SDS011;9943;54.378;18.604;2022-07-12T13:25:30;2.47;;;1.20;;
17239;SDS011;9943;54.378;18.604;2022-07-12T13:27:57;0.82;;;0.80;;
17239;SDS011;9943;54.378;18.604;2022-07-12T13:30:26;1.25;;;0.90;;
17239;SDS011;9943;54.378;18.604;2022-07-12T13:32:54;1.30;;;0.80;;
17239;SDS011;9943;54.378;18.604;2022-07-12T13:35:21;1.35;;;0.88;;
17239;SDS011;9943;54.378;18.604;2022-07-12T13:37:56;2.63;;;0.88;;
17239;SDS011;9943;54.378;18.604;2022-07-12T13:40:25;0.70;;;0.70;;
17239;SDS011;9943;54.378;18.604;2022-07-12T13:42:54;3.40;;;0.80;;
17239;SDS011;9943;54.378;18.604;2022-07-12T13:45:23;1.08;;;0.90;;
17239;SDS011;9943;54.378;18.604;2022-07-12T13:47:53;2.22;;;1.10;;
17239;SDS011;9943;54.378;18.604;2022-07-12T13:50:21;2.10;;;0.93;;
17239;SDS011;9943;54.378;18.604;2022-07-12T13:52:49;1.50;;;0.90;;
17239;SDS011;9943;54.378;18.604;2022-07-12T13:55:17;1.65;;;0.80;;
17239;SDS011;9943;54.378;18.604;2022-07-12T13:57:46;1.25;;;0.88;;
17239;SDS011;9943;54.378;18.604;2022-07-12T14:00:14;2.50;;;0.95;;
17239;SDS011;9943;54.378;18.604;2022-07-12T14:02:43;3.13;;;0.90;;
17239;SDS011;9943;54.378;18.604;2022-07-12T14:05:12;0.70;;;0.70;;
17239;SDS011;9943;54.378;18.604;2022-07-12T14:07:41;6.82;;;1.70;;
17239;SDS011;9943;54.378;18.604;2022-07-12T14:10:10;2.45;;;0.68;;
17239;SDS011;9943;54.378;18.604;2022-07-12T14:12:38;0.90;;;0.90;;
17239;SDS011;9943;54.378;18.604;2022-07-12T14:15:10;1.27;;;0.80;;
17239;SDS011;9943;54.378;18.604;2022-07-12T14:17:45;0.73;;;0.73;;
17239;SDS011;9943;54.378;18.604;2022-07-12T14:20:17;3.30;;;0.98;;
17239;SDS011;9943;54.378;18.604;2022-07-12T14:22:47;1.27;;;0.90;;
17239;SDS011;9943;54.378;18.604;2022-07-12T14:25:15;1.73;;;0.82;;
17239;SDS011;9943;54.378;18.604;2022-07-12T14:27:43;2.47;;;0.80;;
17239;SDS011;9943;54.378;18.604;2022-07-12T14:30:12;1.27;;;1.00;;
17239;SDS011;9943;54.378;18.604;2022-07-12T14:32:40;1.02;;;0.90;;
17239;SDS011;9943;54.378;18.604;2022-07-12T14:35:08;5.50;;;0.90;;
17239;SDS011;9943;54.378;18.604;2022-07-12T14:37:36;0.80;;;0.80;;
17239;SDS011;9943;54.378;18.604;2022-07-12T14:40:05;0.70;;;0.70;;
17239;SDS011;9943;54.378;18.604;2022-07-12T14:42:33;5.75;;;1.25;;
17239;SDS011;9943;54.378;18.604;2022-07-12T14:45:00;1.52;;;0.88;;
17239;SDS011;9943;54.378;18.604;2022-07-12T14:47:29;1.13;;;1.00;;
17239;SDS011;9943;54.378;18.604;2022-07-12T14:49:57;2.00;;;0.82;;
17239;SDS011;9943;54.378;18.604;2022-07-12T14:52:26;0.80;;;0.80;;
17239;SDS011;9943;54.378;18.604;2022-07-12T14:54:53;3.40;;;0.98;;
17239;SDS011;9943;54.378;18.604;2022-07-12T14:57:21;0.80;;;0.80;;
17239;SDS011;9943;54.378;18.604;2022-07-12T14:59:48;2.28;;;1.00;;
17239;SDS011;9943;54.378;18.604;2022-07-12T15:02:17;1.13;;;1.00;;
17239;SDS011;9943;54.378;18.604;2022-07-12T15:04:46;1.20;;;0.80;;
17239;SDS011;9943;54.378;18.604;2022-07-12T15:07:14;1.92;;;1.10;;
17239;SDS011;9943;54.378;18.604;2022-07-12T15:09:42;1.80;;;1.10;;
17239;SDS011;9943;54.378;18.604;2022-07-12T15:12:10;0.90;;;0.90;;
17239;SDS011;9943;54.378;18.604;2022-07-12T15:14:38;0.70;;;0.70;;